createdAt,value
2022-11-22T00:01:05.507Z,0.00
2022-11-22T00:03:08.697Z,0.10
2022-11-22T00:05:11.935Z,0.65
2022-11-22T00:07:14.683Z,0.00
2022-11-22T00:09:17.377Z,0.40
2022-11-22T00:11:20.175Z,0.00
2022-11-22T00:13:22.812Z,0.40
2022-11-22T00:15:25.529Z,0.00
2022-11-22T00:17:28.222Z,0.30
2022-11-22T00:19:31.170Z,0.03
2022-11-22T00:21:34.028Z,1.50
2022-11-22T00:23:36.706Z,0.88
2022-11-22T00:25:39.474Z,0.88
2022-11-22T00:27:42.162Z,0.10
2022-11-22T00:29:45.039Z,0.73
2022-11-22T00:31:47.681Z,0.10
2022-11-22T00:33:50.401Z,2.33
2022-11-22T00:35:52.950Z,1.55
2022-11-22T00:37:55.569Z,3.92
2022-11-22T00:39:58.223Z,1.98
2022-11-22T00:42:00.906Z,0.32
2022-11-22T00:44:03.523Z,1.65
2022-11-22T00:46:06.182Z,0.00
2022-11-22T00:48:08.720Z,0.10
2022-11-22T00:50:11.480Z,0.20
2022-11-22T00:52:14.604Z,1.08
2022-11-22T00:54:17.170Z,0.10
2022-11-22T00:56:19.758Z,0.30
2022-11-22T00:58:22.715Z,0.20
2022-11-22T01:00:25.414Z,0.10
2022-11-22T01:02:28.103Z,2.40
2022-11-22T01:04:30.746Z,0.52
2022-11-22T01:06:33.658Z,0.57
2022-11-22T01:08:36.302Z,0.10
2022-11-22T01:10:39.173Z,0.00
2022-11-22T01:12:41.894Z,0.40
2022-11-22T01:14:44.522Z,0.30
2022-11-22T01:16:47.221Z,1.40
2022-11-22T01:18:49.744Z,4.47
2022-11-22T01:20:52.368Z,0.10
2022-11-22T01:22:55.009Z,0.10
2022-11-22T01:24:57.599Z,0.43
2022-11-22T01:27:00.158Z,1.13
2022-11-22T01:29:03.587Z,8.13
2022-11-22T01:31:06.255Z,0.00
2022-11-22T01:33:09.869Z,0.80
2022-11-22T01:35:12.474Z,0.20
2022-11-22T01:37:15.607Z,0.10
2022-11-22T01:39:18.363Z,8.10
2022-11-22T01:41:21.059Z,0.10
2022-11-22T01:43:26.852Z,0.28
2022-11-22T01:45:32.440Z,0.00
2022-11-22T01:47:35.078Z,0.10
2022-11-22T01:49:48.726Z,0.10
2022-11-22T01:51:55.716Z,0.00
2022-11-22T01:54:04.380Z,0.50
2022-11-22T01:56:12.423Z,0.30
2022-11-22T01:58:18.552Z,0.10
2022-11-22T02:00:21.278Z,0.10
2022-11-22T02:02:24.923Z,0.00
2022-11-22T02:04:28.558Z,0.10
2022-11-22T02:06:44.856Z,0.00
2022-11-22T02:09:11.947Z,0.10
2022-11-22T02:11:15.810Z,0.10
2022-11-22T02:13:20.959Z,0.60
2022-11-22T02:15:43.508Z,0.00
2022-11-22T02:17:46.140Z,0.20
2022-11-22T02:19:50.898Z,0.03
2022-11-22T02:21:59.057Z,2.35
2022-11-22T02:24:10.454Z,0.55
2022-11-22T02:26:14.623Z,0.08
2022-11-22T02:28:17.333Z,0.82
2022-11-22T02:30:20.166Z,0.00
2022-11-22T02:32:22.839Z,0.10
2022-11-22T02:34:25.461Z,2.92
2022-11-22T02:36:28.242Z,0.20
2022-11-22T02:38:35.253Z,0.10
2022-11-22T02:40:45.669Z,0.10
2022-11-22T02:42:54.506Z,0.20
2022-11-22T02:44:57.414Z,0.10
2022-11-22T02:47:00.000Z,3.72
2022-11-22T02:49:02.659Z,0.35
2022-11-22T02:51:05.211Z,0.10
2022-11-22T02:53:09.014Z,1.73
2022-11-22T02:55:11.754Z,0.10
2022-11-22T02:57:15.556Z,0.00
2022-11-22T02:59:18.271Z,0.10
2022-11-22T03:01:20.922Z,0.30
2022-11-22T03:03:23.493Z,0.00
2022-11-22T03:05:26.196Z,0.00
2022-11-22T03:07:28.937Z,0.00
2022-11-22T03:09:32.647Z,0.43
2022-11-22T03:11:35.414Z,0.68
2022-11-22T03:13:38.039Z,0.00
2022-11-22T03:15:40.709Z,0.10
2022-11-22T03:17:43.427Z,0.20
2022-11-22T03:19:46.101Z,0.00
2022-11-22T03:21:48.780Z,0.80
2022-11-22T03:23:51.356Z,0.00
2022-11-22T03:25:53.942Z,0.10
2022-11-22T03:27:56.765Z,0.10
2022-11-22T03:29:59.458Z,0.03
2022-11-22T03:32:02.246Z,0.13
2022-11-22T03:34:05.013Z,0.30
2022-11-22T03:36:07.666Z,0.10
2022-11-22T03:38:10.358Z,0.00
2022-11-22T03:40:14.064Z,0.00
2022-11-22T03:42:21.468Z,0.98
2022-11-22T03:44:24.902Z,0.52
2022-11-22T03:46:27.575Z,0.10
2022-11-22T03:48:30.496Z,0.10
2022-11-22T03:50:33.128Z,0.88
2022-11-22T03:52:35.696Z,0.65
2022-11-22T03:54:38.591Z,0.75
2022-11-22T03:56:41.211Z,0.32
2022-11-22T03:58:43.890Z,0.10
2022-11-22T04:00:46.527Z,3.88
2022-11-22T04:02:49.193Z,0.50
2022-11-22T04:04:51.874Z,0.00
2022-11-22T04:06:54.468Z,0.13
2022-11-22T04:08:57.304Z,0.10
2022-11-22T04:10:59.905Z,0.10
2022-11-22T04:13:02.507Z,0.00
2022-11-22T04:15:08.487Z,0.65
2022-11-22T04:17:14.481Z,0.00
2022-11-22T04:19:17.194Z,0.35
2022-11-22T04:21:35.089Z,0.30
2022-11-22T04:23:37.932Z,3.35
2022-11-22T04:25:42.905Z,0.10
2022-11-22T04:27:45.479Z,0.10
2022-11-22T04:29:48.011Z,0.10
2022-11-22T04:32:09.882Z,0.00
2022-11-22T04:34:12.572Z,0.08
2022-11-22T04:36:21.801Z,0.20
2022-11-22T04:38:27.315Z,0.10
2022-11-22T04:40:29.971Z,0.00
2022-11-22T04:42:51.076Z,0.00
2022-11-22T04:44:53.725Z,0.00
2022-11-22T04:46:56.508Z,0.35
2022-11-22T04:48:59.164Z,0.10
2022-11-22T04:51:20.859Z,0.10
2022-11-22T04:53:23.612Z,0.10
2022-11-22T04:55:27.308Z,0.80
2022-11-22T04:57:30.114Z,0.70
2022-11-22T04:59:32.825Z,0.32
2022-11-22T05:01:35.601Z,0.00
2022-11-22T05:03:38.289Z,0.00
2022-11-22T05:05:43.200Z,0.08
2022-11-22T05:07:45.839Z,0.00
2022-11-22T05:09:48.533Z,0.00
2022-11-22T05:11:51.521Z,0.00
2022-11-22T05:13:54.099Z,0.10
2022-11-22T05:15:57.852Z,0.05
2022-11-22T05:18:00.529Z,0.20
2022-11-22T05:20:03.253Z,0.05
2022-11-22T05:22:05.988Z,0.15
2022-11-22T05:24:08.851Z,0.10
2022-11-22T05:26:11.917Z,0.28
2022-11-22T05:28:14.608Z,1.85
2022-11-22T05:30:17.207Z,0.15
2022-11-22T05:32:19.800Z,0.00
2022-11-22T05:34:22.390Z,0.75
2022-11-22T05:36:25.602Z,0.10
2022-11-22T05:38:28.205Z,0.05
2022-11-22T05:40:30.859Z,0.63
2022-11-22T05:42:34.681Z,0.00
2022-11-22T05:44:37.457Z,0.15
2022-11-22T05:46:40.040Z,0.00
2022-11-22T05:48:44.896Z,0.15
2022-11-22T05:50:47.769Z,0.10
2022-11-22T05:52:50.414Z,0.13
2022-11-22T05:54:52.976Z,1.23
2022-11-22T05:56:56.009Z,0.30
2022-11-22T05:58:58.803Z,0.00
2022-11-22T06:01:06.443Z,0.10
2022-11-22T06:03:09.202Z,4.18
2022-11-22T06:05:12.322Z,8.95
2022-11-22T06:07:15.118Z,0.10
2022-11-22T06:09:17.763Z,0.68
2022-11-22T06:11:23.515Z,0.00
2022-11-22T06:13:26.481Z,0.00
2022-11-22T06:15:30.577Z,2.17
2022-11-22T06:17:33.226Z,0.40
2022-11-22T06:19:35.954Z,0.90
2022-11-22T06:21:38.973Z,0.47
2022-11-22T06:23:41.645Z,2.40
2022-11-22T06:25:44.367Z,0.00
2022-11-22T06:27:47.055Z,0.80
2022-11-22T06:29:49.688Z,1.75
2022-11-22T06:31:52.296Z,0.30
2022-11-22T06:33:57.170Z,0.00
2022-11-22T06:36:04.541Z,0.10
2022-11-22T06:38:07.281Z,0.43
2022-11-22T06:40:12.010Z,0.00
2022-11-22T06:42:15.846Z,0.30
2022-11-22T06:44:18.562Z,0.10
2022-11-22T06:46:24.064Z,0.25
2022-11-22T06:48:29.836Z,0.35
2022-11-22T06:50:32.494Z,0.38
2022-11-22T06:52:35.355Z,0.13
2022-11-22T06:54:38.592Z,0.00
2022-11-22T06:56:41.687Z,0.28
2022-11-22T06:58:45.340Z,0.00
2022-11-22T07:00:47.978Z,0.43
2022-11-22T07:02:50.710Z,0.65
2022-11-22T07:05:23.281Z,0.35
2022-11-22T07:07:16.118Z,0.10
2022-11-22T07:09:18.800Z,0.10
2022-11-22T07:11:24.536Z,0.00
2022-11-22T07:13:27.364Z,0.30
2022-11-22T07:15:29.891Z,0.00
2022-11-22T07:17:32.563Z,1.30
2022-11-22T07:19:35.156Z,0.10
2022-11-22T07:21:37.900Z,0.10
2022-11-22T07:23:43.493Z,0.52
2022-11-22T07:25:49.540Z,1.45
2022-11-22T07:27:55.458Z,0.10
2022-11-22T07:29:58.098Z,0.28
2022-11-22T07:32:00.641Z,0.08
2022-11-22T07:34:03.425Z,0.10
2022-11-22T07:36:11.558Z,0.00
2022-11-22T07:38:14.222Z,0.20
2022-11-22T07:40:17.234Z,0.82
2022-11-22T07:42:25.251Z,0.10
2022-11-22T07:44:28.702Z,0.08
2022-11-22T07:46:33.226Z,0.30
2022-11-22T07:48:36.003Z,0.00
2022-11-22T07:50:38.654Z,0.20
2022-11-22T07:52:41.715Z,0.63
2022-11-22T07:54:44.433Z,0.00
2022-11-22T07:56:47.137Z,0.47
2022-11-22T07:58:49.726Z,0.15
2022-11-22T08:00:52.398Z,0.75
2022-11-22T08:02:55.528Z,0.10
2022-11-22T08:04:58.097Z,0.10
2022-11-22T08:07:00.946Z,0.15
2022-11-22T08:09:04.115Z,0.05
2022-11-22T08:11:07.577Z,0.00
2022-11-22T08:13:10.501Z,0.00
2022-11-22T08:15:15.428Z,0.00
2022-11-22T08:17:18.524Z,0.45
2022-11-22T08:19:21.529Z,1.20
2022-11-22T08:21:24.531Z,0.65
2022-11-22T08:23:27.414Z,0.00
2022-11-22T08:25:30.513Z,0.43
2022-11-22T08:27:33.375Z,0.03
2022-11-22T08:29:39.424Z,0.00
2022-11-22T08:31:42.585Z,0.43
2022-11-22T08:33:46.038Z,0.85
2022-11-22T08:35:50.795Z,0.50
2022-11-22T08:37:58.064Z,0.10
2022-11-22T08:40:01.076Z,0.10
2022-11-22T08:42:04.059Z,0.00
2022-11-22T08:44:07.337Z,0.52
2022-11-22T08:46:11.027Z,0.08
2022-11-22T08:48:17.678Z,0.35
2022-11-22T08:50:24.477Z,0.45
2022-11-22T08:52:27.290Z,0.35
2022-11-22T08:54:33.647Z,0.08
2022-11-22T08:56:40.141Z,0.93
2022-11-22T08:58:43.504Z,0.20
2022-11-22T09:00:46.393Z,0.00
2022-11-22T09:02:49.037Z,0.10
2022-11-22T09:04:51.605Z,0.45
2022-11-22T09:11:40.276Z,0.40
2022-11-22T09:13:43.028Z,0.10
2022-11-22T09:15:45.776Z,1.85
2022-11-22T09:17:48.520Z,0.00
2022-11-22T09:19:51.214Z,0.00
2022-11-22T09:21:53.869Z,0.00
2022-11-22T09:23:56.657Z,0.10
2022-11-22T09:26:04.847Z,0.90
2022-11-22T09:28:07.469Z,4.97
2022-11-22T09:30:11.338Z,0.43
2022-11-22T09:32:13.979Z,0.05
2022-11-22T09:34:16.738Z,0.57
2022-11-22T09:36:22.068Z,0.30
2022-11-22T09:38:24.734Z,0.10
2022-11-22T09:40:29.383Z,0.10
2022-11-22T09:43:08.388Z,2.90
2022-11-22T09:45:25.703Z,3.00
2022-11-22T09:47:46.826Z,0.00
2022-11-22T09:50:22.043Z,0.20
2022-11-22T09:52:24.965Z,1.05
2022-11-22T09:54:35.607Z,0.10
2022-11-22T09:56:39.804Z,0.20
2022-11-22T09:59:19.747Z,0.10
2022-11-22T10:01:39.297Z,0.10
2022-11-22T10:03:50.216Z,2.80
2022-11-22T10:05:56.603Z,0.00
2022-11-22T10:08:20.704Z,0.43
2022-11-22T10:10:32.674Z,0.22
2022-11-22T10:13:07.276Z,0.00
2022-11-22T10:15:47.521Z,0.03
2022-11-22T10:17:55.163Z,0.60
2022-11-22T10:20:19.645Z,0.32
2022-11-22T10:22:30.848Z,0.10
2022-11-22T10:24:33.763Z,0.40
2022-11-22T10:26:39.492Z,0.75
2022-11-22T10:28:52.637Z,0.93
2022-11-22T10:31:10.747Z,10.23
2022-11-22T10:33:20.457Z,0.13
2022-11-22T10:35:40.474Z,0.00
2022-11-22T10:38:09.365Z,2.25
2022-11-22T10:40:46.870Z,0.00
2022-11-22T10:43:00.168Z,0.93
2022-11-22T10:45:33.805Z,0.68
2022-11-22T10:47:55.893Z,0.50
2022-11-22T10:50:10.274Z,0.00
2022-11-22T10:52:31.556Z,0.00
2022-11-22T10:54:52.488Z,0.30
2022-11-22T10:57:22.898Z,0.00
2022-11-22T10:59:37.164Z,0.10
2022-11-22T11:01:45.719Z,0.82
2022-11-22T11:03:51.581Z,0.10
2022-11-22T11:06:21.663Z,2.63
2022-11-22T11:09:02.819Z,0.43
2022-11-22T11:11:02.083Z,1.27
2022-11-22T11:13:26.277Z,0.10
2022-11-22T11:16:11.035Z,0.20
2022-11-22T11:18:43.633Z,0.00
2022-11-22T11:20:47.989Z,0.10
2022-11-22T11:23:13.564Z,0.00
2022-11-22T11:25:40.869Z,0.17
2022-11-22T11:27:43.720Z,0.30
2022-11-22T11:30:03.798Z,0.10
2022-11-22T11:32:09.475Z,0.00
2022-11-22T11:34:24.561Z,0.00
2022-11-22T11:36:28.000Z,0.10
2022-11-22T11:38:42.905Z,0.10
2022-11-22T11:40:46.185Z,0.22
2022-11-22T11:42:48.883Z,0.10
2022-11-22T11:44:51.727Z,0.38
2022-11-22T11:46:54.702Z,1.17
2022-11-22T11:49:11.567Z,2.10
2022-11-22T11:51:22.668Z,0.82
2022-11-22T11:53:26.799Z,0.10
2022-11-22T11:55:37.050Z,1.25
2022-11-22T11:57:44.705Z,0.00
2022-11-22T11:59:50.399Z,1.08
2022-11-22T12:01:55.695Z,0.32
2022-11-22T12:04:03.233Z,0.65
2022-11-22T12:06:13.652Z,0.00
2022-11-22T12:08:32.529Z,0.55
2022-11-22T12:10:37.656Z,0.00
2022-11-22T12:12:49.303Z,3.50
2022-11-22T12:15:11.321Z,0.77
2022-11-22T12:17:28.226Z,0.25
2022-11-22T12:19:42.943Z,0.20
2022-11-22T12:22:35.533Z,0.00
2022-11-22T12:25:03.157Z,0.10
2022-11-22T12:27:12.169Z,0.10
2022-11-22T12:29:16.219Z,0.00
2022-11-22T12:31:37.133Z,0.85
2022-11-22T12:33:45.996Z,0.00
2022-11-22T12:35:50.061Z,0.03
2022-11-22T12:38:09.255Z,0.65
2022-11-22T12:40:23.762Z,0.00
2022-11-22T12:42:35.646Z,0.32
2022-11-22T12:46:52.042Z,0.52
2022-11-22T12:51:18.725Z,0.00
2022-11-22T12:53:30.928Z,0.20
2022-11-22T12:55:52.571Z,0.50
2022-11-22T12:58:03.820Z,2.20
2022-11-22T13:00:15.380Z,0.10
2022-11-22T13:02:36.926Z,0.40
2022-11-22T13:04:50.892Z,0.00
2022-11-22T13:07:11.382Z,0.00
2022-11-22T13:09:33.618Z,0.30
2022-11-22T13:11:45.339Z,0.10
2022-11-22T13:13:52.901Z,0.30
2022-11-22T13:15:58.870Z,0.10
2022-11-22T13:18:01.851Z,0.15
2022-11-22T13:20:18.449Z,1.38
2022-11-22T13:22:29.819Z,0.10
2022-11-22T13:24:57.226Z,0.82
2022-11-22T13:27:11.809Z,0.20
2022-11-22T13:29:28.619Z,0.32
2022-11-22T13:31:33.464Z,0.25
2022-11-22T13:33:43.945Z,0.65
2022-11-22T13:35:46.798Z,1.15
2022-11-22T13:37:57.421Z,0.10
2022-11-22T13:40:29.951Z,2.38
2022-11-22T13:44:39.594Z,0.00
2022-11-22T13:46:56.681Z,1.98
2022-11-22T13:49:36.874Z,1.15
2022-11-22T13:51:54.441Z,0.03
2022-11-22T13:54:35.939Z,0.00
2022-11-22T13:56:41.455Z,0.13
2022-11-22T13:59:01.965Z,0.10
2022-11-22T14:01:04.712Z,0.10
2022-11-22T14:03:16.437Z,0.20
2022-11-22T14:05:25.773Z,0.00
2022-11-22T14:07:35.597Z,1.08
2022-11-22T14:09:53.848Z,0.63
2022-11-22T14:12:11.540Z,0.55
2022-11-22T14:14:58.484Z,0.10
2022-11-22T14:17:14.269Z,0.68
2022-11-22T14:19:51.154Z,0.10
2022-11-22T14:22:32.556Z,0.32
2022-11-22T14:24:56.716Z,0.10
2022-11-22T14:27:20.171Z,0.35
2022-11-22T14:29:53.677Z,0.00
2022-11-22T14:32:04.086Z,1.48
2022-11-22T14:34:23.232Z,0.10
2022-11-22T14:36:25.964Z,0.10
2022-11-22T14:38:31.748Z,0.03
2022-11-22T14:40:40.648Z,0.30
2022-11-22T14:42:47.259Z,0.53
2022-11-22T14:44:52.188Z,1.10
2022-11-22T14:47:02.965Z,0.43
2022-11-22T14:49:13.462Z,0.03
2022-11-22T14:51:32.441Z,0.00
2022-11-22T14:53:46.428Z,0.00
2022-11-22T14:55:52.761Z,0.00
2022-11-22T14:58:03.893Z,0.65
2022-11-22T15:00:10.949Z,0.43
2022-11-22T15:02:46.783Z,0.35
2022-11-22T15:09:09.898Z,0.00
2022-11-22T15:09:12.942Z,0.00
2022-11-22T15:10:02.718Z,0.17
2022-11-22T15:12:11.975Z,0.10
2022-11-22T15:14:55.229Z,0.00
2022-11-22T15:59:26.184Z,0.35
2022-11-22T16:01:29.789Z,10.93
2022-11-22T16:03:40.175Z,0.73
2022-11-22T16:06:09.914Z,0.52
2022-11-22T16:08:06.775Z,0.20
2022-11-22T16:10:27.187Z,0.15
2022-11-22T16:12:37.230Z,0.10
2022-11-22T16:14:46.848Z,0.10
2022-11-22T16:16:49.609Z,0.17
2022-11-22T16:18:53.760Z,0.10
2022-11-22T16:21:18.786Z,0.10
2022-11-22T16:23:27.208Z,0.10
2022-11-22T16:25:34.586Z,0.80
2022-11-22T16:27:37.658Z,0.20
2022-11-22T16:29:42.838Z,0.73
2022-11-22T16:31:45.759Z,1.55
2022-11-22T16:33:49.156Z,2.10
2022-11-22T16:35:56.671Z,1.60
2022-11-22T16:37:59.947Z,0.95
2022-11-22T16:40:02.705Z,0.10
2022-11-22T16:42:06.304Z,1.75
2022-11-22T16:44:14.639Z,0.10
2022-11-22T16:46:17.595Z,0.40
2022-11-22T16:48:33.487Z,0.10
2022-11-22T16:50:40.568Z,0.10
2022-11-22T16:52:46.117Z,0.73
2022-11-22T16:54:48.880Z,0.80
2022-11-22T16:56:51.656Z,0.77
2022-11-22T16:58:57.444Z,7.13
2022-11-22T17:01:01.159Z,4.10
2022-11-22T17:03:04.591Z,0.13
2022-11-22T17:05:08.273Z,0.37
2022-11-22T17:07:12.306Z,0.00
2022-11-22T17:09:14.975Z,0.60
2022-11-22T17:11:29.996Z,0.40
2022-11-22T17:13:32.752Z,7.57
2022-11-22T17:15:36.889Z,0.13
2022-11-22T17:17:39.697Z,0.97
2022-11-22T17:19:53.355Z,0.50
2022-11-22T17:21:56.509Z,0.80
2022-11-22T17:24:01.531Z,0.85
2022-11-22T17:26:05.118Z,4.63
2022-11-22T17:28:08.652Z,2.83
2022-11-22T17:30:12.234Z,2.63
2022-11-22T17:32:15.291Z,1.27
2022-11-22T17:34:18.369Z,3.20
2022-11-22T17:36:29.690Z,4.83
2022-11-22T17:38:32.405Z,2.85
2022-11-22T17:40:35.035Z,0.40
2022-11-22T17:42:41.160Z,3.13
2022-11-22T17:44:44.716Z,0.77
2022-11-22T17:46:47.612Z,0.93
2022-11-22T17:48:55.294Z,0.47
2022-11-22T17:50:59.115Z,1.50
2022-11-22T17:53:02.398Z,1.10
2022-11-22T17:55:08.437Z,1.83
2022-11-22T17:57:13.659Z,0.55
2022-11-22T17:59:16.379Z,0.60
2022-11-22T18:01:21.642Z,2.47
2022-11-22T18:03:24.345Z,1.30
2022-11-22T18:05:27.538Z,1.33
2022-11-22T18:07:30.313Z,0.33
2022-11-22T18:09:34.850Z,2.63
2022-11-22T18:11:38.164Z,1.65
2022-11-22T18:13:40.848Z,3.72
2022-11-22T18:15:43.590Z,1.48
2022-11-22T18:17:46.507Z,1.02
2022-11-22T18:19:49.251Z,0.65
2022-11-22T18:21:52.003Z,2.33
2022-11-22T18:23:54.630Z,2.23
2022-11-22T18:26:17.040Z,0.73
2022-11-22T18:28:23.529Z,0.67
2022-11-22T18:30:26.699Z,3.83
2022-11-22T18:32:29.319Z,1.67
2022-11-22T18:34:32.555Z,0.20
2022-11-22T18:36:54.753Z,2.20
2022-11-22T18:38:57.869Z,2.25
2022-11-22T18:41:01.802Z,9.07
2022-11-22T18:43:04.501Z,0.10
2022-11-22T18:45:08.260Z,1.33
2022-11-22T18:47:11.027Z,1.02
2022-11-22T18:49:13.742Z,6.07
2022-11-22T18:51:16.649Z,0.70
2022-11-22T18:53:19.327Z,3.33
2022-11-22T18:55:22.081Z,0.93
2022-11-22T18:57:24.739Z,1.90
2022-11-22T18:59:27.510Z,1.50
2022-11-22T19:01:30.238Z,3.70
2022-11-22T19:03:33.000Z,4.40
2022-11-22T19:05:40.165Z,2.35
2022-11-22T19:07:42.866Z,8.07
2022-11-22T19:09:45.705Z,2.15
2022-11-22T19:11:48.436Z,2.15
2022-11-22T19:13:51.185Z,3.15
2022-11-22T19:15:53.821Z,1.38
2022-11-22T19:17:56.488Z,4.53
2022-11-22T19:19:59.240Z,1.05
2022-11-22T19:22:03.046Z,1.10
2022-11-22T19:24:06.119Z,6.85
2022-11-22T19:26:14.394Z,1.70
2022-11-22T19:28:17.071Z,1.40
2022-11-22T19:30:19.728Z,4.63
2022-11-22T19:32:22.584Z,5.35
2022-11-22T19:34:25.205Z,11.82
2022-11-22T19:36:33.405Z,3.85
2022-11-22T19:38:36.664Z,7.03
2022-11-22T19:40:41.292Z,3.15
2022-11-22T19:42:43.872Z,6.53
2022-11-22T19:44:46.411Z,1.20
2022-11-22T19:46:48.975Z,3.58
2022-11-22T19:48:53.041Z,8.32
2022-11-22T19:50:56.285Z,7.55
2022-11-22T19:52:59.023Z,5.65
2022-11-22T19:55:01.583Z,5.27
2022-11-22T19:57:04.564Z,5.22
2022-11-22T19:59:10.704Z,3.08
2022-11-22T20:01:14.551Z,2.65
2022-11-22T20:03:17.281Z,5.40
2022-11-22T20:05:20.278Z,2.23
2022-11-22T20:07:22.894Z,2.70
2022-11-22T20:09:25.988Z,5.10
2022-11-22T20:11:28.598Z,5.37
2022-11-22T20:13:35.591Z,5.03
2022-11-22T20:15:38.172Z,9.38
2022-11-22T20:17:41.102Z,11.50
2022-11-22T20:19:43.733Z,8.23
2022-11-22T20:21:49.617Z,4.85
2022-11-22T20:23:53.216Z,7.45
2022-11-22T20:26:04.628Z,9.30
2022-11-22T20:28:07.949Z,12.63
2022-11-22T20:30:11.497Z,5.37
2022-11-22T20:32:14.255Z,6.65
2022-11-22T20:34:16.970Z,5.07
2022-11-22T20:36:22.391Z,6.53
2022-11-22T20:38:25.135Z,7.63
2022-11-22T20:40:27.989Z,6.75
2022-11-22T20:42:35.129Z,6.15
2022-11-22T20:44:38.224Z,5.53
2022-11-22T20:46:41.376Z,10.88
2022-11-22T20:48:46.310Z,8.38
2022-11-22T20:50:52.306Z,6.40
2022-11-22T20:52:55.041Z,8.23
2022-11-22T20:55:03.382Z,9.68
2022-11-22T20:57:07.639Z,14.57
2022-11-22T20:59:10.432Z,10.27
2022-11-22T21:01:16.534Z,9.48
2022-11-22T21:03:19.524Z,4.72
2022-11-22T21:05:22.073Z,13.23
2022-11-22T21:07:25.883Z,8.73
2022-11-22T21:09:28.505Z,8.75
2022-11-22T21:11:32.249Z,11.48
2022-11-22T21:13:35.514Z,8.05
2022-11-22T21:15:38.229Z,18.60
2022-11-22T21:18:02.065Z,12.70
2022-11-22T21:20:04.175Z,14.57
2022-11-22T21:22:07.120Z,12.50
2022-11-22T21:24:12.719Z,9.00
2022-11-22T21:26:15.358Z,9.50
2022-11-22T21:28:17.981Z,13.27
2022-11-22T21:30:20.809Z,10.98
2022-11-22T21:32:23.400Z,11.35
2022-11-22T21:34:26.136Z,10.27
2022-11-22T21:36:28.759Z,9.18
2022-11-22T21:38:33.315Z,9.10
2022-11-22T21:40:35.897Z,10.30
2022-11-22T21:42:38.629Z,15.20
2022-11-22T21:44:41.425Z,8.82
2022-11-22T21:46:44.149Z,12.90
2022-11-22T21:48:49.816Z,10.65
2022-11-22T21:50:54.690Z,9.93
2022-11-22T21:52:57.291Z,8.15
2022-11-22T21:55:00.196Z,14.60
2022-11-22T21:57:03.197Z,12.45
2022-11-22T21:59:06.003Z,10.43
2022-11-22T22:01:14.141Z,8.18
2022-11-22T22:03:18.171Z,10.98
2022-11-22T22:05:21.146Z,8.35
2022-11-22T22:07:50.626Z,8.57
2022-11-22T22:09:46.492Z,11.55
2022-11-22T22:11:49.242Z,7.00
2022-11-22T22:13:55.551Z,9.07
2022-11-22T22:16:00.078Z,12.70
2022-11-22T22:18:03.705Z,8.80
2022-11-22T22:20:07.030Z,12.57
2022-11-22T22:22:09.732Z,9.85
2022-11-22T22:24:12.534Z,10.68
2022-11-22T22:26:17.347Z,12.77
2022-11-22T22:28:19.949Z,8.48
2022-11-22T22:30:23.328Z,12.45
2022-11-22T22:32:27.349Z,8.02
2022-11-22T22:34:30.018Z,12.68
2022-11-22T22:36:32.704Z,12.20
2022-11-22T22:38:35.530Z,10.43
2022-11-22T22:40:38.103Z,14.07
2022-11-22T22:42:40.740Z,13.23
2022-11-22T22:44:43.313Z,11.82
2022-11-22T22:46:45.923Z,9.80
2022-11-22T22:48:49.643Z,12.07
2022-11-22T22:50:52.306Z,7.70
2022-11-22T22:52:54.917Z,11.73
2022-11-22T22:54:57.545Z,8.48
2022-11-22T22:57:00.656Z,8.85
2022-11-22T22:59:05.354Z,10.38
2022-11-22T23:01:11.591Z,14.82
2022-11-22T23:03:14.622Z,9.93
2022-11-22T23:05:17.359Z,13.73
2022-11-22T23:07:19.972Z,7.93
2022-11-22T23:09:22.759Z,10.63
2022-11-22T23:11:47.343Z,13.38
2022-11-22T23:13:49.902Z,8.77
2022-11-22T23:15:58.438Z,15.32
2022-11-22T23:18:01.498Z,9.85
2022-11-22T23:20:04.444Z,8.23
2022-11-22T23:22:07.099Z,14.55
2022-11-22T23:24:10.040Z,8.40
2022-11-22T23:26:13.051Z,11.27
2022-11-22T23:28:15.691Z,11.38
2022-11-22T23:30:18.538Z,9.55
2022-11-22T23:32:21.123Z,11.93
2022-11-22T23:34:23.751Z,15.90
2022-11-22T23:36:26.544Z,10.85
2022-11-22T23:38:29.169Z,10.70
2022-11-22T23:40:31.780Z,11.27
2022-11-22T23:42:34.411Z,7.63
2022-11-22T23:44:37.078Z,10.23
2022-11-22T23:46:39.704Z,13.20
2022-11-22T23:48:43.689Z,13.30
2022-11-22T23:50:46.274Z,12.63
2022-11-22T23:52:55.861Z,10.60
2022-11-22T23:54:58.500Z,21.83
2022-11-22T23:57:01.091Z,12.55
2022-11-22T23:59:07.631Z,9.98
